createdAt,value
2022-12-04T00:01:07.584Z,15.73
2022-12-04T00:03:34.832Z,14.77
2022-12-04T00:06:07.389Z,14.35
2022-12-04T00:08:34.239Z,17.35
2022-12-04T00:11:01.504Z,13.85
2022-12-04T00:13:28.042Z,16.35
2022-12-04T00:15:54.705Z,16.70
2022-12-04T00:18:21.436Z,16.02
2022-12-04T00:20:48.565Z,15.40
2022-12-04T00:23:15.210Z,15.85
2022-12-04T00:25:41.760Z,20.42
2022-12-04T00:28:08.943Z,16.50
2022-12-04T00:30:35.629Z,20.20
2022-12-04T00:33:02.157Z,17.23
2022-12-04T00:35:28.704Z,20.55
2022-12-04T00:37:55.259Z,21.48
2022-12-04T00:40:21.788Z,14.05
2022-12-04T00:42:48.357Z,16.00
2022-12-04T00:45:15.053Z,16.60
2022-12-04T00:47:41.607Z,19.27
2022-12-04T00:50:09.079Z,18.17
2022-12-04T00:52:35.593Z,16.13
2022-12-04T00:55:02.114Z,19.08
2022-12-04T00:57:28.761Z,18.75
2022-12-04T00:59:55.616Z,15.30
2022-12-04T01:02:22.791Z,16.48
2022-12-04T01:04:49.409Z,21.35
2022-12-04T01:07:16.035Z,22.95
2022-12-04T01:09:42.637Z,15.63
2022-12-04T01:12:09.213Z,17.02
2022-12-04T01:14:35.920Z,13.52
2022-12-04T01:17:02.511Z,23.15
2022-12-04T01:19:29.151Z,21.52
2022-12-04T01:21:55.884Z,16.98
2022-12-04T01:24:22.424Z,23.40
2022-12-04T01:26:48.937Z,23.00
2022-12-04T01:29:15.478Z,21.10
2022-12-04T01:31:42.094Z,19.17
2022-12-04T01:34:08.675Z,22.88
2022-12-04T01:36:35.164Z,27.13
2022-12-04T01:39:01.727Z,22.75
2022-12-04T01:41:30.903Z,19.98
2022-12-04T01:44:15.669Z,17.38
2022-12-04T01:46:44.858Z,21.33
2022-12-04T01:49:17.346Z,22.75
2022-12-04T01:51:49.106Z,25.15
2022-12-04T01:56:59.101Z,15.50
2022-12-04T01:59:29.468Z,21.90
2022-12-04T02:02:14.969Z,20.02
2022-12-04T02:04:42.766Z,24.80
2022-12-04T02:07:09.756Z,19.42
2022-12-04T02:09:37.492Z,18.40
2022-12-04T02:12:45.745Z,21.20
2022-12-04T02:15:23.579Z,20.92
2022-12-04T02:18:18.004Z,20.35
2022-12-04T02:20:59.193Z,19.83
2022-12-04T02:23:50.036Z,27.17
2022-12-04T02:26:22.581Z,23.60
2022-12-04T02:29:27.208Z,22.50
2022-12-04T02:32:26.728Z,22.42
2022-12-04T02:35:09.718Z,21.83
2022-12-04T02:37:42.116Z,26.20
2022-12-04T02:40:20.011Z,20.45
2022-12-04T02:43:16.428Z,22.25
2022-12-04T02:45:53.364Z,25.95
2022-12-04T02:48:21.917Z,27.13
2022-12-04T02:50:53.261Z,32.60
2022-12-04T02:53:26.904Z,25.48
2022-12-04T02:55:58.538Z,27.88
2022-12-04T02:58:30.787Z,31.23
2022-12-04T03:01:00.392Z,26.88
2022-12-04T03:03:30.369Z,26.95
2022-12-04T03:06:05.609Z,27.05
2022-12-04T03:08:39.449Z,26.95
2022-12-04T03:11:06.322Z,26.45
2022-12-04T03:13:48.907Z,25.60
2022-12-04T03:16:53.927Z,26.95
2022-12-04T03:19:24.885Z,27.90
2022-12-04T03:21:56.313Z,27.83
2022-12-04T03:24:40.282Z,24.88
2022-12-04T03:27:12.705Z,23.60
2022-12-04T03:29:41.759Z,29.88
2022-12-04T03:32:18.937Z,28.17
2022-12-04T03:34:57.767Z,27.77
2022-12-04T03:37:34.831Z,25.75
2022-12-04T03:40:44.899Z,29.13
2022-12-04T03:43:26.492Z,27.58
2022-12-04T03:46:14.581Z,32.50
2022-12-04T03:48:46.807Z,25.30
2022-12-04T03:51:34.174Z,32.42
2022-12-04T03:54:14.281Z,25.92
2022-12-04T03:56:47.263Z,23.65
2022-12-04T03:59:22.645Z,27.73
2022-12-04T04:01:51.495Z,31.40
2022-12-04T04:04:28.065Z,30.20
2022-12-04T04:06:59.247Z,33.47
2022-12-04T04:09:30.397Z,20.10
2022-12-04T04:12:06.787Z,35.95
2022-12-04T04:14:48.057Z,29.00
2022-12-04T04:17:18.290Z,27.77
2022-12-04T04:19:50.905Z,31.17
2022-12-04T04:22:19.848Z,31.02
2022-12-04T04:24:52.109Z,32.50
2022-12-04T04:27:18.692Z,31.05
2022-12-04T04:29:52.004Z,27.52
2022-12-04T04:32:25.684Z,29.90
2022-12-04T04:35:13.726Z,35.33
2022-12-04T04:37:53.955Z,29.98
2022-12-04T04:40:54.887Z,28.05
2022-12-04T04:43:30.368Z,31.30
2022-12-04T04:46:00.216Z,36.08
2022-12-04T04:48:32.986Z,32.60
2022-12-04T04:51:01.603Z,31.75
2022-12-04T04:53:38.582Z,32.75
2022-12-04T04:56:06.827Z,29.52
2022-12-04T04:58:33.659Z,33.10
2022-12-04T05:01:07.424Z,35.20
2022-12-04T05:03:34.662Z,32.70
2022-12-04T05:06:01.254Z,29.75
2022-12-04T05:08:27.820Z,30.33
2022-12-04T05:10:54.530Z,36.33
2022-12-04T05:13:21.675Z,32.72
2022-12-04T05:16:01.683Z,33.90
2022-12-04T05:18:28.873Z,33.80
2022-12-04T05:20:55.663Z,28.55
2022-12-04T05:23:22.272Z,30.55
2022-12-04T05:25:48.839Z,28.85
2022-12-04T05:28:15.740Z,29.92
2022-12-04T05:30:42.768Z,31.15
2022-12-04T05:33:10.542Z,30.85
2022-12-04T05:35:37.058Z,30.40
2022-12-04T05:38:03.822Z,29.55
2022-12-04T05:40:30.308Z,29.17
2022-12-04T05:42:57.289Z,32.45
2022-12-04T05:45:23.782Z,34.15
2022-12-04T05:47:50.306Z,32.40
2022-12-04T05:50:17.024Z,28.35
2022-12-04T05:52:43.735Z,26.13
2022-12-04T05:55:10.226Z,26.88
2022-12-04T05:57:37.007Z,28.30
2022-12-04T06:00:04.999Z,27.65
2022-12-04T06:02:37.949Z,26.88
2022-12-04T06:05:04.969Z,32.75
2022-12-04T06:07:31.648Z,27.77
2022-12-04T06:09:58.560Z,27.60
2022-12-04T06:12:25.180Z,26.35
2022-12-04T06:14:51.721Z,25.08
2022-12-04T06:17:18.241Z,23.77
2022-12-04T06:19:44.813Z,22.25
2022-12-04T06:22:11.342Z,28.48
2022-12-04T06:24:39.491Z,27.83
2022-12-04T06:29:53.294Z,25.67
2022-12-04T06:32:22.015Z,27.13
2022-12-04T06:34:53.683Z,27.30
2022-12-04T06:37:22.848Z,22.33
2022-12-04T06:39:49.584Z,25.27
2022-12-04T06:42:16.379Z,26.95
2022-12-04T06:44:42.958Z,20.95
2022-12-04T06:47:09.730Z,26.05
2022-12-04T06:49:36.247Z,28.63
2022-12-04T06:52:02.884Z,27.02
2022-12-04T06:54:29.386Z,24.92
2022-12-04T06:56:55.911Z,26.80
2022-12-04T06:59:22.651Z,23.80
2022-12-04T07:01:49.242Z,26.42
2022-12-04T07:04:15.787Z,26.00
2022-12-04T07:06:42.735Z,21.90
2022-12-04T07:09:11.709Z,24.45
2022-12-04T07:11:40.228Z,27.65
2022-12-04T07:14:07.383Z,30.23
2022-12-04T07:16:38.642Z,25.05
2022-12-04T07:19:07.311Z,26.33
2022-12-04T07:21:34.124Z,24.05
2022-12-04T07:24:01.701Z,27.90
2022-12-04T07:26:29.969Z,28.10
2022-12-04T07:28:57.432Z,25.38
2022-12-04T07:31:25.393Z,26.08
2022-12-04T07:33:52.423Z,24.65
2022-12-04T07:36:20.968Z,26.02
2022-12-04T07:38:47.936Z,28.33
2022-12-04T07:41:14.885Z,28.90
2022-12-04T07:43:42.285Z,26.13
2022-12-04T07:46:12.834Z,27.50
2022-12-04T07:48:40.146Z,34.65
2022-12-04T07:51:16.180Z,29.63
2022-12-04T07:53:43.854Z,30.77
2022-12-04T07:56:11.676Z,30.55
2022-12-04T07:58:38.800Z,30.67
2022-12-04T08:01:06.378Z,32.40
2022-12-04T08:03:33.447Z,32.05
2022-12-04T08:06:05.038Z,28.83
2022-12-04T08:08:32.269Z,34.53
2022-12-04T08:10:59.329Z,31.38
2022-12-04T08:13:26.128Z,34.42
2022-12-04T08:15:53.006Z,35.03
2022-12-04T08:18:19.600Z,31.15
2022-12-04T08:20:46.274Z,39.28
2022-12-04T08:23:12.823Z,33.80
2022-12-04T08:25:40.735Z,39.97
2022-12-04T08:28:08.348Z,36.25
2022-12-04T08:30:35.773Z,34.30
2022-12-04T08:33:02.761Z,31.38
2022-12-04T08:35:29.330Z,34.15
2022-12-04T08:37:55.902Z,41.20
2022-12-04T08:40:22.451Z,38.30
2022-12-04T08:42:48.983Z,39.05
2022-12-04T08:45:15.544Z,36.72
2022-12-04T08:47:42.264Z,41.25
2022-12-04T08:50:09.129Z,37.05
2022-12-04T08:52:35.738Z,37.28
2022-12-04T08:55:02.290Z,37.83
2022-12-04T08:57:28.967Z,38.22
2022-12-04T08:59:55.823Z,39.47
2022-12-04T09:02:22.537Z,38.45
2022-12-04T09:04:49.087Z,37.75
2022-12-04T09:07:15.748Z,38.20
2022-12-04T09:09:48.040Z,47.20
2022-12-04T09:12:15.296Z,40.47
2022-12-04T09:14:44.791Z,42.65
2022-12-04T09:17:13.684Z,44.08
2022-12-04T09:19:40.969Z,45.70
2022-12-04T09:22:07.554Z,46.42
2022-12-04T09:24:34.285Z,44.15
2022-12-04T09:27:01.895Z,43.25
2022-12-04T09:29:28.518Z,39.35
2022-12-04T09:31:55.127Z,39.55
2022-12-04T09:34:21.687Z,41.17
2022-12-04T09:36:48.297Z,42.72
2022-12-04T09:39:14.887Z,45.15
2022-12-04T09:42:05.114Z,40.60
2022-12-04T09:44:31.733Z,43.80
2022-12-04T09:47:00.649Z,40.42
2022-12-04T09:49:42.127Z,38.08
2022-12-04T09:52:38.104Z,45.00
2022-12-04T09:55:06.475Z,39.83
2022-12-04T09:57:40.614Z,44.05
2022-12-04T10:00:12.876Z,42.63
2022-12-04T10:02:42.107Z,43.97
2022-12-04T10:05:17.492Z,45.50
2022-12-04T10:07:52.159Z,40.70
2022-12-04T10:10:41.391Z,45.05
2022-12-04T10:13:29.243Z,47.00
2022-12-04T10:16:07.889Z,42.55
2022-12-04T10:19:12.718Z,42.17
2022-12-04T10:22:20.686Z,49.75
2022-12-04T10:24:51.599Z,44.85
2022-12-04T10:27:28.829Z,45.83
2022-12-04T10:30:14.351Z,43.47
2022-12-04T10:32:44.545Z,41.05
2022-12-04T10:35:22.988Z,40.80
2022-12-04T10:37:55.857Z,49.97
2022-12-04T10:40:28.177Z,43.13
2022-12-04T10:43:22.216Z,39.50
2022-12-04T10:45:48.761Z,45.55
2022-12-04T10:48:35.086Z,44.83
2022-12-04T10:51:01.707Z,42.30
2022-12-04T10:53:36.993Z,38.60
2022-12-04T10:56:25.089Z,44.90
2022-12-04T10:59:21.377Z,45.00
2022-12-04T11:01:49.131Z,42.53
2022-12-04T11:04:23.332Z,46.53
2022-12-04T11:06:49.860Z,39.88
2022-12-04T11:09:25.522Z,42.92
2022-12-04T11:11:52.296Z,50.05
2022-12-04T11:14:22.729Z,38.63
2022-12-04T11:17:00.194Z,44.53
2022-12-04T11:19:29.353Z,38.22
2022-12-04T11:22:00.218Z,40.85
2022-12-04T11:24:32.420Z,38.22
2022-12-04T11:26:59.558Z,42.92
2022-12-04T11:29:33.187Z,39.75
2022-12-04T11:32:07.230Z,40.17
2022-12-04T11:34:40.958Z,37.92
2022-12-04T11:37:21.000Z,40.63
2022-12-04T11:39:48.208Z,43.88
2022-12-04T11:42:23.187Z,43.85
2022-12-04T11:45:13.266Z,37.10
2022-12-04T11:47:39.807Z,39.33
2022-12-04T11:50:22.714Z,40.65
2022-12-04T11:53:04.142Z,41.47
2022-12-04T11:55:43.080Z,38.25
2022-12-04T11:58:34.582Z,40.00
2022-12-04T12:01:19.924Z,44.53
2022-12-04T12:04:40.744Z,52.63
2022-12-04T12:07:35.356Z,272.27
2022-12-04T12:10:11.171Z,257.70
2022-12-04T12:13:11.194Z,67.53
2022-12-04T12:16:01.871Z,78.00
2022-12-04T12:18:38.619Z,60.63
2022-12-04T12:21:27.668Z,142.85
2022-12-04T12:24:11.563Z,61.08
2022-12-04T12:26:45.770Z,62.10
2022-12-04T12:29:12.281Z,59.42
2022-12-04T12:31:58.242Z,46.08
2022-12-04T12:34:27.982Z,47.20
2022-12-04T12:37:00.720Z,45.50
2022-12-04T12:39:38.399Z,40.08
2022-12-04T12:42:12.418Z,33.00
2022-12-04T12:45:04.446Z,34.13
2022-12-04T12:47:40.299Z,38.33
2022-12-04T12:50:22.961Z,48.47
2022-12-04T12:52:58.164Z,48.92
2022-12-04T12:55:36.777Z,44.72
2022-12-04T12:58:24.808Z,45.10
2022-12-04T13:01:17.487Z,37.88
2022-12-04T13:03:49.688Z,31.85
2022-12-04T13:06:21.915Z,32.20
2022-12-04T13:09:05.267Z,33.58
2022-12-04T13:11:32.803Z,33.22
2022-12-04T13:14:02.316Z,31.45
2022-12-04T13:16:35.881Z,32.35
2022-12-04T13:19:13.352Z,30.63
2022-12-04T13:21:56.519Z,34.30
2022-12-04T13:24:23.044Z,31.35
2022-12-04T13:27:02.078Z,37.05
2022-12-04T13:29:58.156Z,29.98
2022-12-04T13:32:55.373Z,32.75
2022-12-04T13:35:27.729Z,30.65
2022-12-04T13:38:32.941Z,29.38
2022-12-04T13:41:06.355Z,28.35
2022-12-04T13:43:45.935Z,29.15
2022-12-04T13:46:36.313Z,27.95
2022-12-04T13:49:31.089Z,28.65
2022-12-04T13:51:59.993Z,28.63
2022-12-04T13:54:35.894Z,28.17
2022-12-04T13:57:14.564Z,29.20
2022-12-04T13:59:41.555Z,32.60
2022-12-04T14:02:28.346Z,32.45
2022-12-04T14:05:01.413Z,28.08
2022-12-04T14:07:32.159Z,28.75
2022-12-04T14:10:02.349Z,25.33
2022-12-04T14:12:33.801Z,29.48
2022-12-04T14:15:06.547Z,27.83
2022-12-04T14:17:36.165Z,27.60
2022-12-04T14:20:21.459Z,29.20
2022-12-04T14:22:47.979Z,28.05
2022-12-04T14:25:14.465Z,27.35
2022-12-04T14:27:41.044Z,25.98
2022-12-04T14:30:37.732Z,27.48
2022-12-04T14:33:19.002Z,29.02
2022-12-04T14:36:25.847Z,26.15
2022-12-04T14:39:11.812Z,27.08
2022-12-04T14:41:38.750Z,28.40
2022-12-04T14:44:05.539Z,24.55
2022-12-04T14:46:43.015Z,25.73
2022-12-04T14:49:37.152Z,25.88
2022-12-04T14:52:19.584Z,26.50
2022-12-04T14:54:49.152Z,22.45
2022-12-04T14:57:49.674Z,19.55
2022-12-04T15:00:22.346Z,22.33
2022-12-04T15:02:52.727Z,23.95
2022-12-04T15:05:27.011Z,22.48
2022-12-04T15:07:59.215Z,23.15
2022-12-04T15:10:29.423Z,23.60
2022-12-04T15:12:56.267Z,22.33
2022-12-04T15:15:28.522Z,23.70
2022-12-04T15:18:03.588Z,23.10
2022-12-04T15:20:38.900Z,25.17
2022-12-04T15:23:06.124Z,21.48
2022-12-04T15:25:43.746Z,21.45
2022-12-04T15:28:18.511Z,20.02
2022-12-04T15:30:46.219Z,19.85
2022-12-04T15:33:25.854Z,22.35
2022-12-04T15:36:05.841Z,16.67
2022-12-04T15:38:33.279Z,18.05
2022-12-04T15:41:00.962Z,19.05
2022-12-04T15:43:42.323Z,21.83
2022-12-04T15:46:14.599Z,21.40
2022-12-04T15:48:46.364Z,24.00
2022-12-04T15:51:15.991Z,31.40
2022-12-04T15:53:45.787Z,36.75
2022-12-04T15:56:22.177Z,24.17
2022-12-04T15:58:56.758Z,20.52
2022-12-04T16:01:23.739Z,21.17
2022-12-04T16:03:53.159Z,20.80
2022-12-04T16:06:19.807Z,17.50
2022-12-04T16:09:08.400Z,19.30
2022-12-04T16:11:37.627Z,20.52
2022-12-04T16:14:09.070Z,22.73
2022-12-04T16:16:37.670Z,21.50
2022-12-04T16:19:20.227Z,23.85
2022-12-04T16:21:46.884Z,20.30
2022-12-04T16:24:13.431Z,22.10
2022-12-04T16:26:40.881Z,20.27
2022-12-04T16:29:07.579Z,25.30
2022-12-04T16:31:34.613Z,28.33
2022-12-04T16:34:01.143Z,22.25
2022-12-04T16:36:27.736Z,25.52
2022-12-04T16:38:54.225Z,24.45
2022-12-04T16:41:20.818Z,25.85
2022-12-04T16:43:54.325Z,24.90
2022-12-04T16:46:23.758Z,27.40
2022-12-04T16:48:50.864Z,27.33
2022-12-04T16:51:21.816Z,28.40
2022-12-04T16:53:50.279Z,24.98
2022-12-04T16:56:16.816Z,25.33
2022-12-04T16:58:43.379Z,27.65
2022-12-04T17:01:35.278Z,23.70
2022-12-04T17:06:28.466Z,20.67
2022-12-04T17:08:54.998Z,17.35
2022-12-04T17:11:21.522Z,18.13
2022-12-04T17:13:48.130Z,17.67
2022-12-04T17:16:15.374Z,26.65
2022-12-04T17:18:43.159Z,21.40
2022-12-04T17:21:11.861Z,47.78
2022-12-04T17:23:38.729Z,41.72
2022-12-04T17:26:08.118Z,24.90
2022-12-04T17:28:35.089Z,21.83
2022-12-04T17:31:01.952Z,21.30
2022-12-04T17:33:28.583Z,21.77
2022-12-04T17:35:55.143Z,24.20
2022-12-04T17:38:21.964Z,20.63
2022-12-04T17:41:02.884Z,21.25
2022-12-04T17:43:31.067Z,18.23
2022-12-04T17:45:58.288Z,19.45
2022-12-04T17:48:25.759Z,16.98
2022-12-04T17:51:04.323Z,23.05
2022-12-04T17:53:30.897Z,21.77
2022-12-04T17:56:02.472Z,24.48
2022-12-04T17:58:30.719Z,22.70
2022-12-04T18:01:21.461Z,22.15
2022-12-04T18:03:59.795Z,22.55
2022-12-04T18:06:31.767Z,22.10
2022-12-04T18:08:58.837Z,27.95
2022-12-04T18:11:29.623Z,21.30
2022-12-04T18:14:11.916Z,15.30
2022-12-04T18:16:47.096Z,24.60
2022-12-04T18:19:14.344Z,26.52
2022-12-04T18:21:41.027Z,21.20
2022-12-04T18:24:07.932Z,19.15
2022-12-04T18:26:40.187Z,21.42
2022-12-04T18:29:08.042Z,19.92
2022-12-04T18:31:35.103Z,18.30
2022-12-04T18:34:01.791Z,21.88
2022-12-04T18:36:30.628Z,20.85
2022-12-04T18:39:01.181Z,21.45
2022-12-04T18:41:28.916Z,22.92
2022-12-04T18:43:56.661Z,20.02
2022-12-04T18:46:23.487Z,21.38
2022-12-04T18:48:53.856Z,21.88
2022-12-04T18:51:21.614Z,22.13
2022-12-04T18:53:49.397Z,23.42
2022-12-04T18:56:16.615Z,21.67
2022-12-04T18:58:43.405Z,23.73
2022-12-04T19:01:12.092Z,28.30
2022-12-04T19:03:38.769Z,24.30
2022-12-04T19:06:06.303Z,27.75
2022-12-04T19:08:36.574Z,26.70
2022-12-04T19:11:14.357Z,24.48
2022-12-04T19:13:41.907Z,26.95
2022-12-04T19:16:16.852Z,26.77
2022-12-04T19:18:43.980Z,27.98
2022-12-04T19:21:11.362Z,30.25
2022-12-04T19:23:37.955Z,32.72
2022-12-04T19:26:04.597Z,32.70
2022-12-04T19:28:31.482Z,28.98
2022-12-04T19:30:58.280Z,28.60
2022-12-04T19:33:25.228Z,31.80
2022-12-04T19:36:03.956Z,40.90
2022-12-04T19:38:31.715Z,35.95
2022-12-04T19:41:11.541Z,32.53
2022-12-04T19:43:43.266Z,29.23
2022-12-04T19:48:38.036Z,34.47
2022-12-04T19:51:11.478Z,32.95
2022-12-04T19:53:41.099Z,29.70
2022-12-04T19:56:29.552Z,31.98
2022-12-04T19:59:01.687Z,28.75
2022-12-04T20:01:29.414Z,31.15
2022-12-04T20:03:56.899Z,31.88
2022-12-04T20:06:28.131Z,31.27
2022-12-04T20:08:57.571Z,35.65
2022-12-04T20:11:25.125Z,34.38
2022-12-04T20:13:52.233Z,31.90
2022-12-04T20:16:18.794Z,45.15
2022-12-04T20:18:45.630Z,35.42
2022-12-04T20:21:13.369Z,38.30
2022-12-04T20:23:41.926Z,36.75
2022-12-04T20:26:11.354Z,35.15
2022-12-04T20:28:38.144Z,37.05
2022-12-04T20:31:32.985Z,38.15
2022-12-04T20:34:01.586Z,39.85
2022-12-04T20:36:30.396Z,36.45
2022-12-04T20:38:58.670Z,36.35
2022-12-04T20:41:29.678Z,38.85
2022-12-04T20:43:59.199Z,30.48
2022-12-04T20:46:32.098Z,40.38
2022-12-04T20:48:59.876Z,38.80
2022-12-04T20:51:38.490Z,39.35
2022-12-04T20:54:05.908Z,42.85
2022-12-04T20:56:34.762Z,44.30
2022-12-04T20:59:07.055Z,42.42
2022-12-04T21:01:34.122Z,47.78
2022-12-04T21:04:01.571Z,46.50
2022-12-04T21:06:35.159Z,52.88
2022-12-04T21:09:04.154Z,48.13
2022-12-04T21:11:40.029Z,43.65
2022-12-04T21:14:10.948Z,47.28
2022-12-04T21:16:37.585Z,49.58
2022-12-04T21:19:06.180Z,56.10
2022-12-04T21:21:33.547Z,50.65
2022-12-04T21:24:00.520Z,53.47
2022-12-04T21:26:27.270Z,50.38
2022-12-04T21:28:53.945Z,43.92
2022-12-04T21:31:20.871Z,54.58
2022-12-04T21:33:47.515Z,50.15
2022-12-04T21:36:14.326Z,45.92
2022-12-04T21:38:40.918Z,52.83
2022-12-04T21:41:09.789Z,50.92
2022-12-04T21:43:37.177Z,48.92
2022-12-04T21:46:09.474Z,47.20
2022-12-04T21:48:36.504Z,50.47
2022-12-04T21:51:16.810Z,42.25
2022-12-04T21:53:53.998Z,55.17
2022-12-04T21:56:22.424Z,46.58
2022-12-04T21:58:49.290Z,42.72
2022-12-04T22:01:18.457Z,50.22
2022-12-04T22:03:45.531Z,41.75
2022-12-04T22:06:12.328Z,41.05
2022-12-04T22:08:41.601Z,38.15
2022-12-04T22:11:10.102Z,37.08
2022-12-04T22:13:37.411Z,41.67
2022-12-04T22:16:06.440Z,37.35
2022-12-04T22:18:33.811Z,45.08
2022-12-04T22:21:08.687Z,32.67
2022-12-04T22:23:35.581Z,40.35
2022-12-04T22:26:13.710Z,42.42
2022-12-04T22:28:41.004Z,38.97
2022-12-04T22:31:11.384Z,41.97
2022-12-04T22:33:39.138Z,43.97
2022-12-04T22:36:12.042Z,37.88
2022-12-04T22:38:58.704Z,39.63
2022-12-04T22:41:26.839Z,41.92
2022-12-04T22:43:53.433Z,41.47
2022-12-04T22:46:20.329Z,43.88
2022-12-04T22:48:46.908Z,41.25
2022-12-04T22:51:19.835Z,38.75
2022-12-04T22:53:49.086Z,42.00
2022-12-04T22:56:18.793Z,35.15
2022-12-04T22:58:45.478Z,39.35
2022-12-04T23:01:18.080Z,42.15
2022-12-04T23:03:45.595Z,41.50
2022-12-04T23:06:13.415Z,35.47
2022-12-04T23:08:41.525Z,36.22
2022-12-04T23:11:14.301Z,37.40
2022-12-04T23:13:41.697Z,46.72
2022-12-04T23:16:10.098Z,43.92
2022-12-04T23:18:37.655Z,35.75
2022-12-04T23:21:08.986Z,40.72
2022-12-04T23:23:40.671Z,37.42
2022-12-04T23:28:36.068Z,37.63
2022-12-04T23:31:03.421Z,39.50
2022-12-04T23:33:30.737Z,41.80
2022-12-04T23:35:59.229Z,38.85
2022-12-04T23:38:27.772Z,42.50
2022-12-04T23:41:22.410Z,36.80
2022-12-04T23:43:50.264Z,36.58
2022-12-04T23:46:21.170Z,38.40
2022-12-04T23:48:48.024Z,37.92
2022-12-04T23:51:17.250Z,38.20
2022-12-04T23:53:44.803Z,42.55
2022-12-04T23:56:18.030Z,41.35
2022-12-04T23:58:46.666Z,38.17
